sensor_id;sensor_type;location;lat;lon;timestamp;P1;durP1;ratioP1;P2;durP2;ratioP2
14858;SDS011;7521;51.700;6.874;2023-07-30T00:00:48;6.97;;;4.82;;
14858;SDS011;7521;51.700;6.874;2023-07-30T00:03:55;8.30;;;4.17;;
14858;SDS011;7521;51.700;6.874;2023-07-30T00:07:00;6.07;;;4.45;;
14858;SDS011;7521;51.700;6.874;2023-07-30T00:10:05;8.77;;;4.35;;
14858;SDS011;7521;51.700;6.874;2023-07-30T00:13:10;7.17;;;4.23;;
14858;SDS011;7521;51.700;6.874;2023-07-30T00:16:16;10.43;;;4.07;;
14858;SDS011;7521;51.700;6.874;2023-07-30T00:19:21;5.75;;;3.70;;
14858;SDS011;7521;51.700;6.874;2023-07-30T00:22:26;5.10;;;3.47;;
14858;SDS011;7521;51.700;6.874;2023-07-30T00:25:31;5.28;;;3.45;;
14858;SDS011;7521;51.700;6.874;2023-07-30T00:28:36;6.65;;;2.90;;
14858;SDS011;7521;51.700;6.874;2023-07-30T00:31:42;8.60;;;3.30;;
14858;SDS011;7521;51.700;6.874;2023-07-30T00:34:47;5.60;;;3.07;;
14858;SDS011;7521;51.700;6.874;2023-07-30T00:37:52;4.45;;;2.80;;
14858;SDS011;7521;51.700;6.874;2023-07-30T00:40:57;6.10;;;2.85;;
14858;SDS011;7521;51.700;6.874;2023-07-30T00:44:02;8.30;;;3.75;;
14858;SDS011;7521;51.700;6.874;2023-07-30T00:47:08;8.60;;;3.20;;
14858;SDS011;7521;51.700;6.874;2023-07-30T00:50:13;6.50;;;3.20;;
14858;SDS011;7521;51.700;6.874;2023-07-30T00:53:19;7.27;;;3.03;;
14858;SDS011;7521;51.700;6.874;2023-07-30T00:56:26;8.40;;;3.20;;
14858;SDS011;7521;51.700;6.874;2023-07-30T00:59:33;9.00;;;3.47;;
14858;SDS011;7521;51.700;6.874;2023-07-30T01:02:38;7.93;;;3.63;;
14858;SDS011;7521;51.700;6.874;2023-07-30T01:05:45;8.07;;;3.53;;
14858;SDS011;7521;51.700;6.874;2023-07-30T01:08:50;5.17;;;3.30;;
14858;SDS011;7521;51.700;6.874;2023-07-30T01:11:55;9.60;;;3.80;;
14858;SDS011;7521;51.700;6.874;2023-07-30T01:15:01;8.03;;;3.50;;
14858;SDS011;7521;51.700;6.874;2023-07-30T01:18:06;6.10;;;3.60;;
14858;SDS011;7521;51.700;6.874;2023-07-30T01:21:11;9.27;;;4.00;;
14858;SDS011;7521;51.700;6.874;2023-07-30T01:24:16;8.27;;;4.07;;
14858;SDS011;7521;51.700;6.874;2023-07-30T01:27:25;8.25;;;3.15;;
14858;SDS011;7521;51.700;6.874;2023-07-30T01:30:40;11.33;;;3.50;;
14858;SDS011;7521;51.700;6.874;2023-07-30T01:33:46;8.83;;;3.70;;
14858;SDS011;7521;51.700;6.874;2023-07-30T01:36:52;6.17;;;3.80;;
14858;SDS011;7521;51.700;6.874;2023-07-30T01:39:58;11.00;;;3.57;;
14858;SDS011;7521;51.700;6.874;2023-07-30T01:43:03;11.10;;;3.67;;
14858;SDS011;7521;51.700;6.874;2023-07-30T01:46:08;10.33;;;3.30;;
14858;SDS011;7521;51.700;6.874;2023-07-30T01:49:13;6.80;;;3.70;;
14858;SDS011;7521;51.700;6.874;2023-07-30T01:52:19;5.15;;;3.13;;
14858;SDS011;7521;51.700;6.874;2023-07-30T01:55:24;7.88;;;3.53;;
14858;SDS011;7521;51.700;6.874;2023-07-30T01:58:29;7.63;;;3.47;;
14858;SDS011;7521;51.700;6.874;2023-07-30T02:01:34;7.57;;;3.28;;
14858;SDS011;7521;51.700;6.874;2023-07-30T02:04:39;9.25;;;3.53;;
14858;SDS011;7521;51.700;6.874;2023-07-30T02:07:44;6.63;;;3.42;;
14858;SDS011;7521;51.700;6.874;2023-07-30T02:10:56;10.10;;;3.80;;
14858;SDS011;7521;51.700;6.874;2023-07-30T02:14:01;10.43;;;3.10;;
14858;SDS011;7521;51.700;6.874;2023-07-30T02:17:07;6.75;;;3.60;;
14858;SDS011;7521;51.700;6.874;2023-07-30T02:20:12;8.20;;;3.80;;
14858;SDS011;7521;51.700;6.874;2023-07-30T02:23:17;9.57;;;3.97;;
14858;SDS011;7521;51.700;6.874;2023-07-30T02:26:22;8.70;;;4.10;;
14858;SDS011;7521;51.700;6.874;2023-07-30T02:29:27;6.45;;;4.13;;
14858;SDS011;7521;51.700;6.874;2023-07-30T02:32:33;9.93;;;3.90;;
14858;SDS011;7521;51.700;6.874;2023-07-30T02:35:38;11.23;;;3.90;;
14858;SDS011;7521;51.700;6.874;2023-07-30T02:38:43;5.75;;;3.63;;
14858;SDS011;7521;51.700;6.874;2023-07-30T02:41:48;8.50;;;3.50;;
14858;SDS011;7521;51.700;6.874;2023-07-30T02:44:53;5.93;;;3.30;;
14858;SDS011;7521;51.700;6.874;2023-07-30T02:47:59;4.35;;;3.05;;
14858;SDS011;7521;51.700;6.874;2023-07-30T02:51:04;6.65;;;2.97;;
14858;SDS011;7521;51.700;6.874;2023-07-30T02:54:09;8.13;;;3.25;;
14858;SDS011;7521;51.700;6.874;2023-07-30T02:57:14;8.10;;;3.20;;
14858;SDS011;7521;51.700;6.874;2023-07-30T03:00:19;6.50;;;3.83;;
14858;SDS011;7521;51.700;6.874;2023-07-30T03:03:25;8.83;;;3.10;;
14858;SDS011;7521;51.700;6.874;2023-07-30T03:06:30;10.40;;;3.63;;
14858;SDS011;7521;51.700;6.874;2023-07-30T03:09:35;7.80;;;3.60;;
14858;SDS011;7521;51.700;6.874;2023-07-30T03:12:40;8.20;;;4.18;;
14858;SDS011;7521;51.700;6.874;2023-07-30T03:15:45;8.45;;;3.80;;
14858;SDS011;7521;51.700;6.874;2023-07-30T03:18:51;7.17;;;3.53;;
14858;SDS011;7521;51.700;6.874;2023-07-30T03:21:56;7.50;;;3.63;;
14858;SDS011;7521;51.700;6.874;2023-07-30T03:25:02;4.83;;;3.27;;
14858;SDS011;7521;51.700;6.874;2023-07-30T03:28:07;8.00;;;3.90;;
14858;SDS011;7521;51.700;6.874;2023-07-30T03:31:12;4.93;;;3.53;;
14858;SDS011;7521;51.700;6.874;2023-07-30T03:34:17;7.72;;;3.40;;
14858;SDS011;7521;51.700;6.874;2023-07-30T03:37:22;9.65;;;3.22;;
14858;SDS011;7521;51.700;6.874;2023-07-30T03:40:28;6.68;;;3.10;;
14858;SDS011;7521;51.700;6.874;2023-07-30T03:43:34;8.07;;;4.03;;
14858;SDS011;7521;51.700;6.874;2023-07-30T03:46:39;7.73;;;3.47;;
14858;SDS011;7521;51.700;6.874;2023-07-30T03:49:45;10.30;;;3.70;;
14858;SDS011;7521;51.700;6.874;2023-07-30T03:52:50;8.40;;;3.10;;
14858;SDS011;7521;51.700;6.874;2023-07-30T03:55:55;6.97;;;3.30;;
14858;SDS011;7521;51.700;6.874;2023-07-30T03:59:00;11.60;;;4.20;;
14858;SDS011;7521;51.700;6.874;2023-07-30T04:02:05;11.70;;;3.77;;
14858;SDS011;7521;51.700;6.874;2023-07-30T04:05:11;14.43;;;4.53;;
14858;SDS011;7521;51.700;6.874;2023-07-30T04:08:16;9.13;;;4.25;;
14858;SDS011;7521;51.700;6.874;2023-07-30T04:11:21;9.83;;;3.47;;
14858;SDS011;7521;51.700;6.874;2023-07-30T04:14:26;8.15;;;4.20;;
14858;SDS011;7521;51.700;6.874;2023-07-30T04:17:31;9.65;;;3.72;;
14858;SDS011;7521;51.700;6.874;2023-07-30T04:20:36;11.87;;;4.20;;
14858;SDS011;7521;51.700;6.874;2023-07-30T04:23:42;10.95;;;4.07;;
14858;SDS011;7521;51.700;6.874;2023-07-30T04:26:47;10.95;;;4.45;;
14858;SDS011;7521;51.700;6.874;2023-07-30T04:29:52;13.80;;;4.07;;
14858;SDS011;7521;51.700;6.874;2023-07-30T04:32:57;8.27;;;3.73;;
14858;SDS011;7521;51.700;6.874;2023-07-30T04:36:02;9.20;;;3.72;;
14858;SDS011;7521;51.700;6.874;2023-07-30T04:39:08;7.23;;;3.63;;
14858;SDS011;7521;51.700;6.874;2023-07-30T04:42:13;15.50;;;4.27;;
14858;SDS011;7521;51.700;6.874;2023-07-30T04:45:19;11.87;;;4.17;;
14858;SDS011;7521;51.700;6.874;2023-07-30T04:48:25;12.37;;;4.53;;
14858;SDS011;7521;51.700;6.874;2023-07-30T04:51:30;9.67;;;4.80;;
14858;SDS011;7521;51.700;6.874;2023-07-30T04:54:35;10.27;;;4.50;;
14858;SDS011;7521;51.700;6.874;2023-07-30T04:57:41;16.93;;;6.67;;
14858;SDS011;7521;51.700;6.874;2023-07-30T05:00:46;14.65;;;7.22;;
14858;SDS011;7521;51.700;6.874;2023-07-30T05:03:51;14.23;;;6.43;;
14858;SDS011;7521;51.700;6.874;2023-07-30T05:06:56;16.67;;;7.00;;
14858;SDS011;7521;51.700;6.874;2023-07-30T05:10:02;12.57;;;6.97;;
14858;SDS011;7521;51.700;6.874;2023-07-30T05:13:07;20.73;;;7.33;;
14858;SDS011;7521;51.700;6.874;2023-07-30T05:16:13;14.57;;;6.57;;
14858;SDS011;7521;51.700;6.874;2023-07-30T05:19:19;13.18;;;6.60;;
14858;SDS011;7521;51.700;6.874;2023-07-30T05:22:24;15.70;;;7.43;;
14858;SDS011;7521;51.700;6.874;2023-07-30T05:25:30;18.83;;;6.73;;
14858;SDS011;7521;51.700;6.874;2023-07-30T05:28:35;16.92;;;7.40;;
14858;SDS011;7521;51.700;6.874;2023-07-30T05:31:40;18.20;;;7.77;;
14858;SDS011;7521;51.700;6.874;2023-07-30T05:34:45;16.55;;;7.25;;
14858;SDS011;7521;51.700;6.874;2023-07-30T05:37:51;15.27;;;7.50;;
14858;SDS011;7521;51.700;6.874;2023-07-30T05:40:56;19.48;;;7.43;;
14858;SDS011;7521;51.700;6.874;2023-07-30T05:44:01;17.73;;;7.77;;
14858;SDS011;7521;51.700;6.874;2023-07-30T05:47:06;13.20;;;6.73;;
14858;SDS011;7521;51.700;6.874;2023-07-30T05:50:12;18.63;;;7.43;;
14858;SDS011;7521;51.700;6.874;2023-07-30T05:53:20;16.23;;;6.43;;
14858;SDS011;7521;51.700;6.874;2023-07-30T05:56:25;16.23;;;6.63;;
14858;SDS011;7521;51.700;6.874;2023-07-30T05:59:30;15.50;;;7.20;;
14858;SDS011;7521;51.700;6.874;2023-07-30T06:02:41;14.40;;;7.50;;
14858;SDS011;7521;51.700;6.874;2023-07-30T06:05:46;18.30;;;7.77;;
14858;SDS011;7521;51.700;6.874;2023-07-30T06:08:54;17.60;;;7.30;;
14858;SDS011;7521;51.700;6.874;2023-07-30T06:12:02;15.80;;;7.03;;
14858;SDS011;7521;51.700;6.874;2023-07-30T06:15:13;19.63;;;7.27;;
14858;SDS011;7521;51.700;6.874;2023-07-30T06:18:18;13.93;;;7.40;;
14858;SDS011;7521;51.700;6.874;2023-07-30T06:21:27;18.43;;;7.97;;
14858;SDS011;7521;51.700;6.874;2023-07-30T06:24:32;28.20;;;8.77;;
14858;SDS011;7521;51.700;6.874;2023-07-30T06:27:37;17.02;;;8.05;;
14858;SDS011;7521;51.700;6.874;2023-07-30T06:30:42;20.67;;;8.50;;
14858;SDS011;7521;51.700;6.874;2023-07-30T06:33:48;20.50;;;8.75;;
14858;SDS011;7521;51.700;6.874;2023-07-30T06:36:53;16.73;;;8.87;;
14858;SDS011;7521;51.700;6.874;2023-07-30T06:39:58;19.92;;;9.27;;
14858;SDS011;7521;51.700;6.874;2023-07-30T06:43:03;24.58;;;9.18;;
14858;SDS011;7521;51.700;6.874;2023-07-30T06:46:08;21.00;;;9.40;;
14858;SDS011;7521;51.700;6.874;2023-07-30T06:49:13;22.83;;;9.57;;
14858;SDS011;7521;51.700;6.874;2023-07-30T06:52:19;19.15;;;8.73;;
14858;SDS011;7521;51.700;6.874;2023-07-30T06:55:25;22.80;;;9.70;;
14858;SDS011;7521;51.700;6.874;2023-07-30T06:58:30;21.08;;;9.20;;
14858;SDS011;7521;51.700;6.874;2023-07-30T07:01:35;21.07;;;9.10;;
14858;SDS011;7521;51.700;6.874;2023-07-30T07:04:40;17.15;;;9.20;;
14858;SDS011;7521;51.700;6.874;2023-07-30T07:07:45;15.87;;;8.13;;
14858;SDS011;7521;51.700;6.874;2023-07-30T07:10:51;15.88;;;8.00;;
14858;SDS011;7521;51.700;6.874;2023-07-30T07:13:56;18.23;;;7.80;;
14858;SDS011;7521;51.700;6.874;2023-07-30T07:17:04;17.50;;;8.30;;
14858;SDS011;7521;51.700;6.874;2023-07-30T07:20:11;17.20;;;7.43;;
14858;SDS011;7521;51.700;6.874;2023-07-30T07:23:22;19.67;;;7.83;;
14858;SDS011;7521;51.700;6.874;2023-07-30T07:26:27;15.97;;;6.53;;
14858;SDS011;7521;51.700;6.874;2023-07-30T07:29:32;17.13;;;6.40;;
14858;SDS011;7521;51.700;6.874;2023-07-30T07:32:37;19.37;;;6.97;;
14858;SDS011;7521;51.700;6.874;2023-07-30T07:35:43;21.97;;;5.83;;
14858;SDS011;7521;51.700;6.874;2023-07-30T07:38:52;16.33;;;5.50;;
14858;SDS011;7521;51.700;6.874;2023-07-30T07:41:57;15.37;;;5.60;;
14858;SDS011;7521;51.700;6.874;2023-07-30T07:45:02;19.00;;;6.07;;
14858;SDS011;7521;51.700;6.874;2023-07-30T07:48:10;13.07;;;5.47;;
14858;SDS011;7521;51.700;6.874;2023-07-30T07:51:15;15.97;;;5.70;;
14858;SDS011;7521;51.700;6.874;2023-07-30T07:54:20;12.40;;;5.43;;
14858;SDS011;7521;51.700;6.874;2023-07-30T07:57:25;20.57;;;5.80;;
14858;SDS011;7521;51.700;6.874;2023-07-30T08:00:31;16.63;;;5.72;;
14858;SDS011;7521;51.700;6.874;2023-07-30T08:03:36;16.23;;;6.47;;
14858;SDS011;7521;51.700;6.874;2023-07-30T08:06:47;19.00;;;5.93;;
14858;SDS011;7521;51.700;6.874;2023-07-30T08:09:52;14.77;;;5.63;;
14858;SDS011;7521;51.700;6.874;2023-07-30T08:12:59;12.17;;;5.37;;
14858;SDS011;7521;51.700;6.874;2023-07-30T08:16:04;17.40;;;6.10;;
14858;SDS011;7521;51.700;6.874;2023-07-30T08:19:09;18.10;;;5.87;;
14858;SDS011;7521;51.700;6.874;2023-07-30T08:22:14;13.47;;;5.57;;
14858;SDS011;7521;51.700;6.874;2023-07-30T08:25:20;15.23;;;5.60;;
14858;SDS011;7521;51.700;6.874;2023-07-30T08:28:25;15.67;;;5.60;;
14858;SDS011;7521;51.700;6.874;2023-07-30T08:31:30;14.20;;;5.17;;
14858;SDS011;7521;51.700;6.874;2023-07-30T08:34:35;11.55;;;5.18;;
14858;SDS011;7521;51.700;6.874;2023-07-30T08:37:40;12.87;;;5.13;;
14858;SDS011;7521;51.700;6.874;2023-07-30T08:40:45;14.43;;;4.80;;
14858;SDS011;7521;51.700;6.874;2023-07-30T08:43:53;14.98;;;4.60;;
14858;SDS011;7521;51.700;6.874;2023-07-30T08:46:59;13.87;;;4.20;;
14858;SDS011;7521;51.700;6.874;2023-07-30T08:50:04;17.10;;;4.75;;
14858;SDS011;7521;51.700;6.874;2023-07-30T08:53:10;14.23;;;4.17;;
14858;SDS011;7521;51.700;6.874;2023-07-30T08:56:15;14.03;;;4.37;;
14858;SDS011;7521;51.700;6.874;2023-07-30T08:59:20;14.30;;;3.70;;
14858;SDS011;7521;51.700;6.874;2023-07-30T09:02:30;9.80;;;2.80;;
14858;SDS011;7521;51.700;6.874;2023-07-30T09:05:35;13.47;;;4.17;;
14858;SDS011;7521;51.700;6.874;2023-07-30T09:08:41;18.00;;;3.60;;
14858;SDS011;7521;51.700;6.874;2023-07-30T09:11:53;14.02;;;3.95;;
14858;SDS011;7521;51.700;6.874;2023-07-30T09:15:05;12.50;;;2.90;;
14858;SDS011;7521;51.700;6.874;2023-07-30T09:18:10;13.60;;;3.60;;
14858;SDS011;7521;51.700;6.874;2023-07-30T09:21:15;11.73;;;3.13;;
14858;SDS011;7521;51.700;6.874;2023-07-30T09:24:23;10.20;;;2.83;;
14858;SDS011;7521;51.700;6.874;2023-07-30T09:27:29;14.43;;;3.07;;
14858;SDS011;7521;51.700;6.874;2023-07-30T09:30:40;9.93;;;2.70;;
14858;SDS011;7521;51.700;6.874;2023-07-30T09:33:55;9.13;;;2.33;;
14858;SDS011;7521;51.700;6.874;2023-07-30T09:37:00;9.07;;;2.53;;
14858;SDS011;7521;51.700;6.874;2023-07-30T09:40:08;12.90;;;3.37;;
14858;SDS011;7521;51.700;6.874;2023-07-30T09:43:14;11.17;;;3.03;;
14858;SDS011;7521;51.700;6.874;2023-07-30T09:46:19;6.70;;;2.10;;
14858;SDS011;7521;51.700;6.874;2023-07-30T09:49:24;9.50;;;2.63;;
14858;SDS011;7521;51.700;6.874;2023-07-30T09:52:30;9.93;;;2.63;;
14858;SDS011;7521;51.700;6.874;2023-07-30T09:55:35;8.83;;;2.33;;
14858;SDS011;7521;51.700;6.874;2023-07-30T09:58:43;8.23;;;2.37;;
14858;SDS011;7521;51.700;6.874;2023-07-30T10:01:49;9.87;;;2.53;;
14858;SDS011;7521;51.700;6.874;2023-07-30T10:04:54;10.90;;;2.40;;
14858;SDS011;7521;51.700;6.874;2023-07-30T10:08:09;9.50;;;2.30;;
14858;SDS011;7521;51.700;6.874;2023-07-30T10:11:16;7.43;;;2.37;;
14858;SDS011;7521;51.700;6.874;2023-07-30T10:14:22;16.90;;;2.37;;
14858;SDS011;7521;51.700;6.874;2023-07-30T10:17:35;13.87;;;2.50;;
14858;SDS011;7521;51.700;6.874;2023-07-30T10:20:41;13.20;;;3.70;;
14858;SDS011;7521;51.700;6.874;2023-07-30T10:24:00;9.60;;;2.70;;
14858;SDS011;7521;51.700;6.874;2023-07-30T10:27:27;9.67;;;2.57;;
14858;SDS011;7521;51.700;6.874;2023-07-30T10:30:34;13.37;;;2.57;;
14858;SDS011;7521;51.700;6.874;2023-07-30T10:33:52;15.23;;;2.27;;
14858;SDS011;7521;51.700;6.874;2023-07-30T10:36:58;5.93;;;2.13;;
14858;SDS011;7521;51.700;6.874;2023-07-30T10:40:15;10.17;;;2.73;;
14858;SDS011;7521;51.700;6.874;2023-07-30T10:43:21;9.23;;;2.50;;
14858;SDS011;7521;51.700;6.874;2023-07-30T10:46:35;13.43;;;2.30;;
14858;SDS011;7521;51.700;6.874;2023-07-30T10:49:53;12.47;;;2.83;;
14858;SDS011;7521;51.700;6.874;2023-07-30T10:53:01;11.23;;;2.17;;
14858;SDS011;7521;51.700;6.874;2023-07-30T10:56:10;11.33;;;2.60;;
14858;SDS011;7521;51.700;6.874;2023-07-30T10:59:15;8.70;;;2.00;;
14858;SDS011;7521;51.700;6.874;2023-07-30T11:02:21;6.53;;;1.70;;
14858;SDS011;7521;51.700;6.874;2023-07-30T11:05:27;8.23;;;2.47;;
14858;SDS011;7521;51.700;6.874;2023-07-30T11:08:37;8.13;;;2.00;;
14858;SDS011;7521;51.700;6.874;2023-07-30T11:11:42;10.73;;;2.17;;
14858;SDS011;7521;51.700;6.874;2023-07-30T11:14:47;7.53;;;2.20;;
14858;SDS011;7521;51.700;6.874;2023-07-30T11:17:53;6.05;;;2.05;;
14858;SDS011;7521;51.700;6.874;2023-07-30T11:21:14;10.07;;;2.00;;
14858;SDS011;7521;51.700;6.874;2023-07-30T11:24:20;6.93;;;1.80;;
14858;SDS011;7521;51.700;6.874;2023-07-30T11:27:26;8.30;;;2.13;;
14858;SDS011;7521;51.700;6.874;2023-07-30T11:30:31;9.30;;;2.10;;
14858;SDS011;7521;51.700;6.874;2023-07-30T11:33:38;10.50;;;2.40;;
14858;SDS011;7521;51.700;6.874;2023-07-30T11:36:44;7.47;;;2.50;;
14858;SDS011;7521;51.700;6.874;2023-07-30T11:39:50;8.67;;;2.23;;
14858;SDS011;7521;51.700;6.874;2023-07-30T11:42:57;7.70;;;2.37;;
14858;SDS011;7521;51.700;6.874;2023-07-30T11:46:07;11.33;;;2.77;;
14858;SDS011;7521;51.700;6.874;2023-07-30T11:49:13;12.23;;;2.23;;
14858;SDS011;7521;51.700;6.874;2023-07-30T11:52:19;5.67;;;1.37;;
14858;SDS011;7521;51.700;6.874;2023-07-30T11:55:24;5.28;;;1.48;;
14858;SDS011;7521;51.700;6.874;2023-07-30T11:58:41;5.33;;;1.43;;
14858;SDS011;7521;51.700;6.874;2023-07-30T12:01:46;6.17;;;1.27;;
14858;SDS011;7521;51.700;6.874;2023-07-30T12:04:52;5.87;;;1.23;;
14858;SDS011;7521;51.700;6.874;2023-07-30T12:07:57;4.60;;;1.10;;
14858;SDS011;7521;51.700;6.874;2023-07-30T12:11:03;5.27;;;1.83;;
14858;SDS011;7521;51.700;6.874;2023-07-30T12:14:09;4.87;;;1.77;;
14858;SDS011;7521;51.700;6.874;2023-07-30T12:17:14;8.25;;;1.60;;
14858;SDS011;7521;51.700;6.874;2023-07-30T12:20:19;4.57;;;1.70;;
14858;SDS011;7521;51.700;6.874;2023-07-30T12:23:24;8.33;;;2.07;;
14858;SDS011;7521;51.700;6.874;2023-07-30T12:26:30;4.27;;;1.83;;
14858;SDS011;7521;51.700;6.874;2023-07-30T12:29:35;5.43;;;1.67;;
14858;SDS011;7521;51.700;6.874;2023-07-30T12:32:40;5.88;;;1.80;;
14858;SDS011;7521;51.700;6.874;2023-07-30T12:35:46;2.97;;;1.40;;
14858;SDS011;7521;51.700;6.874;2023-07-30T12:38:51;5.10;;;1.87;;
14858;SDS011;7521;51.700;6.874;2023-07-30T12:41:58;4.10;;;1.90;;
14858;SDS011;7521;51.700;6.874;2023-07-30T12:45:03;4.28;;;1.55;;
14858;SDS011;7521;51.700;6.874;2023-07-30T12:48:08;6.53;;;2.00;;
14858;SDS011;7521;51.700;6.874;2023-07-30T12:51:14;5.53;;;2.27;;
14858;SDS011;7521;51.700;6.874;2023-07-30T12:54:19;7.33;;;2.43;;
14858;SDS011;7521;51.700;6.874;2023-07-30T12:57:24;7.93;;;1.90;;
14858;SDS011;7521;51.700;6.874;2023-07-30T13:00:29;5.55;;;1.85;;
14858;SDS011;7521;51.700;6.874;2023-07-30T13:03:35;6.10;;;2.07;;
14858;SDS011;7521;51.700;6.874;2023-07-30T13:06:41;6.80;;;2.00;;
14858;SDS011;7521;51.700;6.874;2023-07-30T13:09:46;7.50;;;2.55;;
14858;SDS011;7521;51.700;6.874;2023-07-30T13:12:52;6.80;;;2.23;;
14858;SDS011;7521;51.700;6.874;2023-07-30T13:15:58;7.43;;;2.53;;
14858;SDS011;7521;51.700;6.874;2023-07-30T13:19:06;3.83;;;2.07;;
14858;SDS011;7521;51.700;6.874;2023-07-30T13:22:11;8.67;;;2.10;;
14858;SDS011;7521;51.700;6.874;2023-07-30T13:25:16;9.25;;;2.47;;
14858;SDS011;7521;51.700;6.874;2023-07-30T13:28:21;6.82;;;2.15;;
14858;SDS011;7521;51.700;6.874;2023-07-30T13:31:27;8.17;;;2.20;;
14858;SDS011;7521;51.700;6.874;2023-07-30T13:34:32;6.70;;;1.97;;
14858;SDS011;7521;51.700;6.874;2023-07-30T13:37:37;8.07;;;2.10;;
14858;SDS011;7521;51.700;6.874;2023-07-30T13:40:42;4.22;;;1.63;;
14858;SDS011;7521;51.700;6.874;2023-07-30T13:43:48;4.72;;;1.80;;
14858;SDS011;7521;51.700;6.874;2023-07-30T13:46:53;6.47;;;1.80;;
14858;SDS011;7521;51.700;6.874;2023-07-30T13:49:58;4.00;;;1.37;;
14858;SDS011;7521;51.700;6.874;2023-07-30T13:53:03;7.63;;;1.40;;
14858;SDS011;7521;51.700;6.874;2023-07-30T13:56:09;8.37;;;1.67;;
14858;SDS011;7521;51.700;6.874;2023-07-30T13:59:14;8.13;;;1.50;;
14858;SDS011;7521;51.700;6.874;2023-07-30T14:02:19;7.90;;;1.87;;
14858;SDS011;7521;51.700;6.874;2023-07-30T14:05:24;4.80;;;1.30;;
14858;SDS011;7521;51.700;6.874;2023-07-30T14:08:30;5.57;;;1.58;;
14858;SDS011;7521;51.700;6.874;2023-07-30T14:11:35;12.50;;;1.95;;
14858;SDS011;7521;51.700;6.874;2023-07-30T14:14:40;6.20;;;1.73;;
14858;SDS011;7521;51.700;6.874;2023-07-30T14:17:45;6.10;;;1.85;;
14858;SDS011;7521;51.700;6.874;2023-07-30T14:20:51;4.83;;;1.30;;
14858;SDS011;7521;51.700;6.874;2023-07-30T14:23:56;7.17;;;1.60;;
14858;SDS011;7521;51.700;6.874;2023-07-30T14:27:01;8.53;;;1.70;;
14858;SDS011;7521;51.700;6.874;2023-07-30T14:30:07;6.00;;;1.30;;
14858;SDS011;7521;51.700;6.874;2023-07-30T14:33:12;5.33;;;1.60;;
14858;SDS011;7521;51.700;6.874;2023-07-30T14:36:17;8.07;;;1.30;;
14858;SDS011;7521;51.700;6.874;2023-07-30T14:39:22;8.27;;;1.77;;
14858;SDS011;7521;51.700;6.874;2023-07-30T14:42:28;5.10;;;1.60;;
14858;SDS011;7521;51.700;6.874;2023-07-30T14:45:33;5.40;;;1.50;;
14858;SDS011;7521;51.700;6.874;2023-07-30T14:48:38;5.60;;;1.20;;
14858;SDS011;7521;51.700;6.874;2023-07-30T14:51:43;7.70;;;1.60;;
14858;SDS011;7521;51.700;6.874;2023-07-30T14:54:49;5.80;;;1.47;;
14858;SDS011;7521;51.700;6.874;2023-07-30T14:57:54;4.35;;;1.38;;
14858;SDS011;7521;51.700;6.874;2023-07-30T15:00:59;4.80;;;1.00;;
14858;SDS011;7521;51.700;6.874;2023-07-30T15:04:04;7.43;;;1.20;;
14858;SDS011;7521;51.700;6.874;2023-07-30T15:07:10;5.00;;;1.20;;
14858;SDS011;7521;51.700;6.874;2023-07-30T15:10:15;5.47;;;1.40;;
14858;SDS011;7521;51.700;6.874;2023-07-30T15:13:22;4.83;;;1.43;;
14858;SDS011;7521;51.700;6.874;2023-07-30T15:16:28;8.63;;;1.43;;
14858;SDS011;7521;51.700;6.874;2023-07-30T15:19:33;4.83;;;1.50;;
14858;SDS011;7521;51.700;6.874;2023-07-30T15:22:38;9.05;;;1.60;;
14858;SDS011;7521;51.700;6.874;2023-07-30T15:25:44;6.47;;;1.45;;
14858;SDS011;7521;51.700;6.874;2023-07-30T15:28:49;4.80;;;1.50;;
14858;SDS011;7521;51.700;6.874;2023-07-30T15:31:54;7.43;;;1.40;;
14858;SDS011;7521;51.700;6.874;2023-07-30T15:35:01;4.20;;;1.40;;
14858;SDS011;7521;51.700;6.874;2023-07-30T15:38:07;4.33;;;1.47;;
14858;SDS011;7521;51.700;6.874;2023-07-30T15:41:12;6.03;;;1.43;;
14858;SDS011;7521;51.700;6.874;2023-07-30T15:44:17;5.10;;;1.50;;
14858;SDS011;7521;51.700;6.874;2023-07-30T15:47:22;5.20;;;1.47;;
14858;SDS011;7521;51.700;6.874;2023-07-30T15:50:27;6.03;;;1.67;;
14858;SDS011;7521;51.700;6.874;2023-07-30T15:53:33;4.33;;;1.47;;
14858;SDS011;7521;51.700;6.874;2023-07-30T15:56:38;6.88;;;1.95;;
14858;SDS011;7521;51.700;6.874;2023-07-30T15:59:44;4.85;;;1.48;;
14858;SDS011;7521;51.700;6.874;2023-07-30T16:02:50;6.83;;;1.40;;
14858;SDS011;7521;51.700;6.874;2023-07-30T16:05:55;4.10;;;1.53;;
14858;SDS011;7521;51.700;6.874;2023-07-30T16:09:00;5.50;;;1.38;;
14858;SDS011;7521;51.700;6.874;2023-07-30T16:12:06;9.05;;;1.58;;
14858;SDS011;7521;51.700;6.874;2023-07-30T16:15:11;4.90;;;1.53;;
14858;SDS011;7521;51.700;6.874;2023-07-30T16:18:16;3.20;;;1.30;;
14858;SDS011;7521;51.700;6.874;2023-07-30T16:21:21;4.80;;;1.50;;
14858;SDS011;7521;51.700;6.874;2023-07-30T16:24:26;5.07;;;1.50;;
14858;SDS011;7521;51.700;6.874;2023-07-30T16:27:32;7.47;;;1.57;;
14858;SDS011;7521;51.700;6.874;2023-07-30T16:30:37;6.07;;;1.60;;
14858;SDS011;7521;51.700;6.874;2023-07-30T16:33:42;5.10;;;1.55;;
14858;SDS011;7521;51.700;6.874;2023-07-30T16:36:47;4.63;;;1.50;;
14858;SDS011;7521;51.700;6.874;2023-07-30T16:39:52;5.13;;;1.67;;
14858;SDS011;7521;51.700;6.874;2023-07-30T16:42:59;5.73;;;1.63;;
14858;SDS011;7521;51.700;6.874;2023-07-30T16:46:04;7.87;;;1.83;;
14858;SDS011;7521;51.700;6.874;2023-07-30T16:49:09;8.03;;;1.67;;
14858;SDS011;7521;51.700;6.874;2023-07-30T16:52:14;4.50;;;1.47;;
14858;SDS011;7521;51.700;6.874;2023-07-30T16:55:19;5.17;;;1.60;;
14858;SDS011;7521;51.700;6.874;2023-07-30T16:58:25;6.43;;;1.60;;
14858;SDS011;7521;51.700;6.874;2023-07-30T17:01:30;4.10;;;1.33;;
14858;SDS011;7521;51.700;6.874;2023-07-30T17:04:41;4.90;;;1.63;;
14858;SDS011;7521;51.700;6.874;2023-07-30T17:07:50;4.43;;;1.10;;
14858;SDS011;7521;51.700;6.874;2023-07-30T17:10:56;7.60;;;1.43;;
14858;SDS011;7521;51.700;6.874;2023-07-30T17:14:01;2.37;;;1.30;;
14858;SDS011;7521;51.700;6.874;2023-07-30T17:17:06;6.07;;;1.67;;
14858;SDS011;7521;51.700;6.874;2023-07-30T17:20:12;7.43;;;1.80;;
14858;SDS011;7521;51.700;6.874;2023-07-30T17:23:21;5.33;;;1.93;;
14858;SDS011;7521;51.700;6.874;2023-07-30T17:26:26;3.20;;;1.10;;
14858;SDS011;7521;51.700;6.874;2023-07-30T17:29:31;2.50;;;1.07;;
14858;SDS011;7521;51.700;6.874;2023-07-30T17:32:36;5.43;;;1.30;;
14858;SDS011;7521;51.700;6.874;2023-07-30T17:35:44;3.67;;;1.40;;
14858;SDS011;7521;51.700;6.874;2023-07-30T17:38:49;3.53;;;1.30;;
14858;SDS011;7521;51.700;6.874;2023-07-30T17:41:57;6.97;;;1.67;;
14858;SDS011;7521;51.700;6.874;2023-07-30T17:45:02;5.10;;;1.33;;
14858;SDS011;7521;51.700;6.874;2023-07-30T17:48:09;7.00;;;1.60;;
14858;SDS011;7521;51.700;6.874;2023-07-30T17:51:14;3.90;;;1.60;;
14858;SDS011;7521;51.700;6.874;2023-07-30T17:54:20;4.33;;;1.30;;
14858;SDS011;7521;51.700;6.874;2023-07-30T17:57:25;2.47;;;1.33;;
14858;SDS011;7521;51.700;6.874;2023-07-30T18:00:31;3.63;;;1.37;;
14858;SDS011;7521;51.700;6.874;2023-07-30T18:03:36;9.10;;;1.70;;
14858;SDS011;7521;51.700;6.874;2023-07-30T18:06:41;4.97;;;1.80;;
14858;SDS011;7521;51.700;6.874;2023-07-30T18:09:46;7.20;;;2.00;;
14858;SDS011;7521;51.700;6.874;2023-07-30T18:12:51;7.83;;;1.63;;
14858;SDS011;7521;51.700;6.874;2023-07-30T18:15:57;6.70;;;1.80;;
14858;SDS011;7521;51.700;6.874;2023-07-30T18:19:02;4.40;;;1.40;;
14858;SDS011;7521;51.700;6.874;2023-07-30T18:22:07;5.10;;;2.20;;
14858;SDS011;7521;51.700;6.874;2023-07-30T18:25:12;5.70;;;2.10;;
14858;SDS011;7521;51.700;6.874;2023-07-30T18:28:18;11.63;;;2.40;;
14858;SDS011;7521;51.700;6.874;2023-07-30T18:31:23;5.07;;;2.00;;
14858;SDS011;7521;51.700;6.874;2023-07-30T18:34:28;14.07;;;2.67;;
14858;SDS011;7521;51.700;6.874;2023-07-30T18:37:33;7.53;;;2.50;;
14858;SDS011;7521;51.700;6.874;2023-07-30T18:40:38;6.97;;;2.17;;
14858;SDS011;7521;51.700;6.874;2023-07-30T18:43:44;7.30;;;2.13;;
14858;SDS011;7521;51.700;6.874;2023-07-30T18:46:49;4.70;;;2.10;;
14858;SDS011;7521;51.700;6.874;2023-07-30T18:49:55;7.10;;;2.30;;